createdAt,value
2017-10-30T00:00:25.329Z,4.5
2017-10-30T00:01:27.699Z,4.4
2017-10-30T00:02:30.073Z,4.4
2017-10-30T00:03:32.431Z,4.4
2017-10-30T00:04:34.809Z,4.4
2017-10-30T00:05:37.185Z,4.4
2017-10-30T00:06:39.567Z,4.4
2017-10-30T00:07:42.273Z,4.4
2017-10-30T00:08:44.995Z,4.4
2017-10-30T00:09:47.372Z,4.4
2017-10-30T00:10:49.737Z,4.4
2017-10-30T00:11:52.104Z,4.5
2017-10-30T00:12:54.465Z,4.4
2017-10-30T00:13:56.837Z,4.4
2017-10-30T00:14:59.221Z,4.4
2017-10-30T00:16:01.577Z,4.4
2017-10-30T00:17:03.941Z,4.4
2017-10-30T00:18:06.310Z,4.4
2017-10-30T00:19:08.668Z,4.4
2017-10-30T00:20:11.047Z,4.4
2017-10-30T00:21:13.420Z,4.4
2017-10-30T00:22:15.776Z,4.4
2017-10-30T00:23:18.148Z,4.4
2017-10-30T00:24:20.516Z,4.4
2017-10-30T00:25:22.883Z,4.4
2017-10-30T00:26:25.244Z,4.4
2017-10-30T00:27:27.608Z,4.4
2017-10-30T00:28:29.973Z,4.4
2017-10-30T00:29:32.356Z,4.4
2017-10-30T00:30:34.726Z,4.4
2017-10-30T00:31:37.076Z,4.4
2017-10-30T00:32:39.448Z,4.4
2017-10-30T00:33:41.823Z,4.4
2017-10-30T00:34:44.186Z,4.4
2017-10-30T00:35:46.547Z,4.4
2017-10-30T00:36:48.921Z,4.4
2017-10-30T00:37:51.288Z,4.4
2017-10-30T00:38:53.651Z,4.4
2017-10-30T00:39:56.029Z,4.4
2017-10-30T00:40:58.399Z,4.4
2017-10-30T00:42:01.121Z,4.3
2017-10-30T00:43:03.493Z,4.4
2017-10-30T00:44:05.858Z,4.4
2017-10-30T00:45:08.217Z,4.4
2017-10-30T00:46:10.584Z,4.4
2017-10-30T00:47:13.295Z,4.4
2017-10-30T00:48:15.669Z,4.4
2017-10-30T00:49:18.043Z,4.4
2017-10-30T00:50:20.398Z,4.4
2017-10-30T00:51:22.767Z,4.3
2017-10-30T00:52:25.141Z,4.4
2017-10-30T00:53:27.510Z,4.4
2017-10-30T00:54:29.867Z,4.4
2017-10-30T00:55:32.237Z,4.4
2017-10-30T00:56:34.963Z,4.3
2017-10-30T00:57:37.332Z,4.4
2017-10-30T00:58:39.725Z,4.3
2017-10-30T00:59:42.440Z,4.4
2017-10-30T01:00:44.811Z,4.4
2017-10-30T01:01:47.182Z,4.4
2017-10-30T01:02:49.540Z,4.4
2017-10-30T01:03:51.911Z,4.4
2017-10-30T01:04:54.275Z,4.4
2017-10-30T01:05:56.648Z,4.4
2017-10-30T01:06:59.023Z,4.3
2017-10-30T01:08:01.393Z,4.4
2017-10-30T01:09:03.766Z,4.4
2017-10-30T01:10:06.133Z,4.4
2017-10-30T01:11:08.493Z,4.4
2017-10-30T01:12:11.598Z,4.4
2017-10-30T01:13:13.957Z,4.4
2017-10-30T01:14:16.329Z,4.3
2017-10-30T01:15:18.691Z,4.3
2017-10-30T01:16:21.053Z,4.4
2017-10-30T01:17:23.425Z,4.4
2017-10-30T01:18:25.802Z,4.4
2017-10-30T01:19:28.156Z,4.3
2017-10-30T01:20:30.529Z,4.3
2017-10-30T01:21:32.905Z,4.3
2017-10-30T01:22:35.274Z,4.3
2017-10-30T01:23:37.641Z,4.3
2017-10-30T01:24:40.012Z,4.4
2017-10-30T01:25:42.371Z,4.3
2017-10-30T01:26:44.742Z,4.3
2017-10-30T01:27:47.120Z,4.3
2017-10-30T01:28:49.480Z,4.4
2017-10-30T01:29:51.845Z,4.4
2017-10-30T01:30:54.211Z,4.4
2017-10-30T01:31:56.574Z,4.4
2017-10-30T01:32:58.939Z,4.3
2017-10-30T01:34:01.310Z,4.4
2017-10-30T01:35:03.678Z,4.4
2017-10-30T01:36:06.039Z,4.4
2017-10-30T01:37:08.406Z,4.3
2017-10-30T01:38:11.136Z,4.3
2017-10-30T01:39:13.499Z,4.3
2017-10-30T01:40:15.861Z,4.3
2017-10-30T01:41:18.228Z,4.3
2017-10-30T01:42:20.591Z,4.4
2017-10-30T01:43:23.310Z,4.4
2017-10-30T01:44:25.689Z,4.3
2017-10-30T01:45:28.047Z,4.3
2017-10-30T01:46:30.419Z,4.4
2017-10-30T01:47:32.797Z,4.4
2017-10-30T01:48:35.160Z,4.4
2017-10-30T01:49:37.526Z,4.4
2017-10-30T01:50:39.886Z,4.3
2017-10-30T01:51:42.250Z,4.4
2017-10-30T01:52:44.635Z,4.4
2017-10-30T01:53:47.366Z,4.3
2017-10-30T01:54:49.727Z,4.3
2017-10-30T01:55:52.103Z,4.4
2017-10-30T01:56:54.461Z,4.3
2017-10-30T01:57:56.829Z,4.4
2017-10-30T01:58:59.216Z,4.4
2017-10-30T02:00:01.605Z,4.4
2017-10-30T02:01:03.942Z,4.3
2017-10-30T02:02:06.320Z,4.3
2017-10-30T02:03:08.690Z,4.4
2017-10-30T02:04:11.046Z,4.4
2017-10-30T02:05:13.421Z,4.3
2017-10-30T02:06:15.792Z,4.4
2017-10-30T02:07:18.507Z,4.3
2017-10-30T02:08:20.872Z,4.3
2017-10-30T02:09:23.234Z,4.3
2017-10-30T02:10:25.597Z,4.3
2017-10-30T02:11:27.986Z,4.4
2017-10-30T02:12:30.344Z,4.3
2017-10-30T02:13:32.705Z,4.3
2017-10-30T02:14:35.074Z,4.3
2017-10-30T02:15:37.445Z,4.3
2017-10-30T02:16:39.812Z,4.3
2017-10-30T02:17:42.544Z,4.4
2017-10-30T02:18:44.898Z,4.3
2017-10-30T02:19:47.272Z,4.3
2017-10-30T02:20:49.643Z,4.3
2017-10-30T02:21:52.020Z,4.3
2017-10-30T02:22:54.743Z,4.4
2017-10-30T02:23:57.112Z,4.3
2017-10-30T02:24:59.475Z,4.3
2017-10-30T02:26:01.847Z,4.3
2017-10-30T02:27:04.209Z,4.3
2017-10-30T02:28:06.575Z,4.3
2017-10-30T02:29:09.280Z,4.3
2017-10-30T02:30:11.657Z,4.3
2017-10-30T02:31:14.401Z,4.3
2017-10-30T02:32:16.772Z,4.3
2017-10-30T02:33:19.140Z,4.3
2017-10-30T02:34:21.886Z,4.3
2017-10-30T02:35:24.613Z,4.3
2017-10-30T02:36:26.980Z,4.2
2017-10-30T02:37:29.352Z,4.3
2017-10-30T02:38:31.709Z,4.3
2017-10-30T02:39:34.446Z,4.3
2017-10-30T02:40:36.820Z,4.3
2017-10-30T02:41:39.183Z,4.3
2017-10-30T02:42:41.589Z,4.3
2017-10-30T02:43:43.926Z,4.3
2017-10-30T02:44:46.287Z,4.3
2017-10-30T02:45:48.662Z,4.3
2017-10-30T02:46:51.034Z,4.3
2017-10-30T02:47:53.401Z,4.3
2017-10-30T02:48:55.773Z,4.3
2017-10-30T02:49:58.131Z,4.3
2017-10-30T02:51:00.508Z,4.3
2017-10-30T02:52:02.876Z,4.3
2017-10-30T02:53:05.236Z,4.3
2017-10-30T02:54:07.638Z,4.3
2017-10-30T02:55:10.364Z,4.3
2017-10-30T02:56:13.075Z,4.3
2017-10-30T02:57:15.441Z,4.3
2017-10-30T02:58:17.796Z,4.3
2017-10-30T02:59:20.167Z,4.3
2017-10-30T03:00:22.532Z,4.3
2017-10-30T03:01:24.905Z,4.3
2017-10-30T03:02:27.277Z,4.3
2017-10-30T03:03:29.639Z,4.3
2017-10-30T03:04:32.004Z,4.3
2017-10-30T03:05:34.377Z,4.3
2017-10-30T03:06:36.742Z,4.3
2017-10-30T03:07:39.112Z,4.3
2017-10-30T03:08:41.490Z,4.3
2017-10-30T03:09:44.207Z,4.3
2017-10-30T03:10:46.574Z,4.3
2017-10-30T03:11:48.947Z,4.3
2017-10-30T03:12:51.309Z,4.2
2017-10-30T03:13:53.682Z,4.2
2017-10-30T03:14:56.051Z,4.3
2017-10-30T03:15:58.411Z,4.2
2017-10-30T03:17:01.505Z,4.2
2017-10-30T03:18:03.860Z,4.3
2017-10-30T03:19:06.584Z,4.2
2017-10-30T03:20:08.959Z,4.2
2017-10-30T03:21:11.323Z,4.2
2017-10-30T03:22:13.683Z,4.3
2017-10-30T03:23:16.401Z,4.3
2017-10-30T03:24:18.754Z,4.4
2017-10-30T03:25:21.132Z,4.3
2017-10-30T03:26:23.507Z,4.3
2017-10-30T03:27:25.863Z,4.3
2017-10-30T03:28:28.239Z,4.3
2017-10-30T03:29:30.614Z,4.3
2017-10-30T03:30:32.977Z,4.3
2017-10-30T03:31:35.343Z,4.3
2017-10-30T03:32:37.716Z,4.2
2017-10-30T03:33:40.435Z,4.2
2017-10-30T03:34:42.794Z,4.3
2017-10-30T03:35:45.524Z,4.3
2017-10-30T03:36:47.897Z,4.2
2017-10-30T03:37:50.272Z,4.3
2017-10-30T03:38:52.645Z,4.2
2017-10-30T03:39:55.004Z,4.3
2017-10-30T03:40:57.377Z,4.2
2017-10-30T03:41:59.757Z,4.3
2017-10-30T03:43:02.118Z,4.3
2017-10-30T03:44:04.481Z,4.3
2017-10-30T03:45:06.839Z,4.2
2017-10-30T03:46:09.216Z,4.3
2017-10-30T03:47:11.577Z,4.2
2017-10-30T03:48:13.951Z,4.2
2017-10-30T03:49:16.316Z,4.3
2017-10-30T03:50:18.683Z,4.2
2017-10-30T03:51:21.058Z,4.2
2017-10-30T03:52:23.424Z,4.2
2017-10-30T03:53:25.807Z,4.2
2017-10-30T03:54:28.173Z,4.2
2017-10-30T03:55:30.548Z,4.2
2017-10-30T03:56:32.920Z,4.2
2017-10-30T03:57:35.286Z,4.2
2017-10-30T03:58:37.653Z,4.2
2017-10-30T03:59:40.010Z,4.3
2017-10-30T04:00:42.386Z,4.2
2017-10-30T04:01:44.749Z,4.3
2017-10-30T04:02:47.114Z,4.2
2017-10-30T04:03:49.487Z,4.2
2017-10-30T04:04:51.853Z,4.2
2017-10-30T04:05:54.217Z,4.2
2017-10-30T04:06:56.590Z,4.3
2017-10-30T04:07:58.961Z,4.2
2017-10-30T04:09:01.335Z,4.3
2017-10-30T04:10:03.701Z,4.2
2017-10-30T04:11:06.061Z,4.2
2017-10-30T04:12:08.421Z,4.2
2017-10-30T04:13:10.799Z,4.2
2017-10-30T04:14:13.168Z,4.3
2017-10-30T04:15:15.524Z,4.2
2017-10-30T04:16:17.901Z,4.2
2017-10-30T04:17:20.254Z,4.2
2017-10-30T04:18:22.615Z,4.2
2017-10-30T04:19:24.976Z,4.2
2017-10-30T04:20:27.704Z,4.2
2017-10-30T04:21:30.097Z,4.2
2017-10-30T04:22:32.446Z,4.2
2017-10-30T04:23:34.799Z,4.2
2017-10-30T04:24:37.873Z,4.2
2017-10-30T04:25:40.256Z,4.2
2017-10-30T04:26:42.610Z,4.2
2017-10-30T04:27:44.976Z,4.2
2017-10-30T04:28:47.338Z,4.2
2017-10-30T04:29:49.707Z,4.3
2017-10-30T04:30:52.077Z,4.2
2017-10-30T04:31:54.444Z,4.2
2017-10-30T04:32:57.193Z,4.2
2017-10-30T04:34:00.289Z,4.2
2017-10-30T04:35:03.022Z,4.2
2017-10-30T04:36:05.396Z,4.2
2017-10-30T04:37:07.756Z,4.2
2017-10-30T04:38:10.516Z,4.2
2017-10-30T04:39:12.876Z,4.2
2017-10-30T04:40:15.249Z,4.2
2017-10-30T04:41:17.606Z,4.2
2017-10-30T04:42:19.969Z,4.2
2017-10-30T04:43:22.700Z,4.2
2017-10-30T04:44:25.068Z,4.2
2017-10-30T04:45:27.436Z,4.2
2017-10-30T04:46:29.802Z,4.2
2017-10-30T04:47:32.173Z,4.2
2017-10-30T04:48:34.529Z,4.2
2017-10-30T04:49:36.899Z,4.2
2017-10-30T04:50:39.276Z,4.1
2017-10-30T04:51:41.637Z,4.1
2017-10-30T04:52:44.010Z,4.2
2017-10-30T04:53:46.373Z,4.2
2017-10-30T04:54:48.741Z,4.1
2017-10-30T04:55:51.114Z,4.1
2017-10-30T04:56:53.474Z,4.2
2017-10-30T04:57:55.833Z,4.2
2017-10-30T04:58:58.209Z,4.2
2017-10-30T05:00:00.579Z,4.2
2017-10-30T05:01:02.953Z,4.1
2017-10-30T05:02:05.324Z,4.1
2017-10-30T05:03:08.028Z,4.1
2017-10-30T05:04:10.406Z,4.1
2017-10-30T05:05:12.798Z,4.1
2017-10-30T05:06:15.158Z,4.2
2017-10-30T05:07:17.530Z,4.1
2017-10-30T05:08:20.597Z,4.1
2017-10-30T05:09:22.956Z,4.2
2017-10-30T05:10:25.324Z,4.2
2017-10-30T05:11:28.031Z,4.1
2017-10-30T05:12:30.403Z,4.2
2017-10-30T05:13:32.769Z,4.2
2017-10-30T05:14:35.145Z,4.2
2017-10-30T05:15:37.511Z,4.2
2017-10-30T05:16:39.884Z,4.1
2017-10-30T05:17:42.249Z,4.2
2017-10-30T05:18:44.620Z,4.2
2017-10-30T05:19:46.987Z,4.3
2017-10-30T05:20:49.414Z,4.2
2017-10-30T05:21:51.776Z,4.1
2017-10-30T05:22:54.150Z,4.2
2017-10-30T05:23:56.504Z,4.2
2017-10-30T05:24:58.877Z,4.1
2017-10-30T05:26:01.596Z,4.2
2017-10-30T05:27:03.966Z,4.2
2017-10-30T05:28:06.676Z,4.1
2017-10-30T05:29:09.043Z,4.2
2017-10-30T05:30:11.408Z,4.2
2017-10-30T05:31:13.770Z,4.1
2017-10-30T05:32:16.544Z,4.2
2017-10-30T05:33:18.901Z,4.1
2017-10-30T05:34:21.268Z,4.2
2017-10-30T05:35:23.981Z,4.1
2017-10-30T05:36:26.347Z,4.2
2017-10-30T05:37:28.703Z,4.2
2017-10-30T05:38:31.078Z,4.1
2017-10-30T05:39:33.792Z,4.1
2017-10-30T05:40:36.514Z,4.1
2017-10-30T05:41:39.231Z,4.2
2017-10-30T05:42:41.608Z,4.1
2017-10-30T05:43:44.333Z,4.1
2017-10-30T05:44:46.696Z,4.2
2017-10-30T05:45:49.056Z,4.3
2017-10-30T05:46:51.428Z,4.1
2017-10-30T05:47:53.805Z,4.1
2017-10-30T05:48:56.165Z,4.1
2017-10-30T05:49:58.543Z,4.1
2017-10-30T05:51:01.248Z,4.1
2017-10-30T05:52:03.616Z,4.2
2017-10-30T05:53:05.974Z,4.1
2017-10-30T05:54:08.338Z,4.1
2017-10-30T05:55:12.989Z,4.1
2017-10-30T05:56:15.396Z,4.2
2017-10-30T05:57:17.768Z,4.2
2017-10-30T05:58:20.153Z,4.1
2017-10-30T05:59:22.524Z,4.2
2017-10-30T06:00:24.894Z,4.1
2017-10-30T06:01:27.264Z,4.1
2017-10-30T06:02:29.638Z,4.1
2017-10-30T06:03:32.360Z,4.1
2017-10-30T06:04:34.720Z,4.1
2017-10-30T06:05:37.097Z,4.1
2017-10-30T06:06:39.495Z,4.1
2017-10-30T06:07:42.213Z,4.1
2017-10-30T06:08:44.598Z,4.2
2017-10-30T06:09:46.968Z,4.2
2017-10-30T06:10:49.328Z,4.2
2017-10-30T06:11:52.065Z,4.1
2017-10-30T06:12:54.434Z,4.1
2017-10-30T06:13:56.797Z,4.2
2017-10-30T06:14:59.163Z,4.2
2017-10-30T06:16:01.527Z,4.1
2017-10-30T06:17:05.793Z,4.1
2017-10-30T06:18:08.513Z,4.2
2017-10-30T06:19:10.896Z,4.1
2017-10-30T06:20:13.272Z,4.1
2017-10-30T06:21:15.654Z,4.1
2017-10-30T06:22:18.360Z,4.2
2017-10-30T06:23:20.734Z,4.1
2017-10-30T06:24:23.667Z,4.2
2017-10-30T06:25:26.183Z,4.1
2017-10-30T06:26:28.550Z,4.1
2017-10-30T06:27:31.285Z,4.2
2017-10-30T06:28:33.653Z,4.1
2017-10-30T06:29:36.029Z,4.2
2017-10-30T06:30:39.125Z,4.1
2017-10-30T06:31:41.502Z,4.1
2017-10-30T06:32:43.985Z,4.1
2017-10-30T06:33:46.363Z,4.1
2017-10-30T06:34:49.378Z,4.1
2017-10-30T06:35:51.744Z,4.1
2017-10-30T06:36:54.463Z,4.1
2017-10-30T06:37:56.824Z,4.1
2017-10-30T06:38:59.375Z,4.1
2017-10-30T06:40:02.162Z,4.1
2017-10-30T06:41:04.551Z,4.1
2017-10-30T06:42:06.938Z,4.1
2017-10-30T06:43:10.112Z,4.1
2017-10-30T06:44:12.485Z,4.1
2017-10-30T06:45:14.872Z,4.1
2017-10-30T06:46:17.982Z,4.1
2017-10-30T06:47:20.928Z,4.1
2017-10-30T06:48:23.379Z,4.1
2017-10-30T06:49:26.015Z,4.1
2017-10-30T06:50:28.378Z,4.1
2017-10-30T06:51:31.955Z,4.1
2017-10-30T06:52:34.327Z,4.1
2017-10-30T06:53:36.692Z,4.1
2017-10-30T06:54:39.068Z,4.1
2017-10-30T06:55:41.800Z,4.1
2017-10-30T06:56:44.192Z,4.1
2017-10-30T06:57:46.568Z,4.1
2017-10-30T06:58:48.945Z,4.1
2017-10-30T06:59:51.314Z,4.1
2017-10-30T07:00:53.674Z,4.1
2017-10-30T07:01:56.040Z,4.1
2017-10-30T07:02:58.412Z,4.1
2017-10-30T07:04:01.794Z,4.2
2017-10-30T07:05:04.546Z,4.1
2017-10-30T07:06:06.916Z,4.1
2017-10-30T07:07:10.134Z,4.1
2017-10-30T07:08:12.508Z,4.1
2017-10-30T07:09:14.975Z,4.1
2017-10-30T07:10:17.353Z,4.2
2017-10-30T07:11:19.715Z,4.2
2017-10-30T07:12:22.095Z,4.2
2017-10-30T07:13:24.468Z,4.3
2017-10-30T07:14:26.843Z,4.3
2017-10-30T07:15:29.350Z,4.3
2017-10-30T07:16:31.719Z,4.3
2017-10-30T07:17:34.082Z,4.3
2017-10-30T07:18:36.461Z,4.3
2017-10-30T07:19:38.826Z,4.3
2017-10-30T07:20:41.378Z,4.4
2017-10-30T07:21:43.753Z,4.4
2017-10-30T07:22:46.128Z,4.4
2017-10-30T07:23:48.839Z,4.5
2017-10-30T07:24:51.219Z,4.5
2017-10-30T07:25:53.570Z,4.5
2017-10-30T07:26:56.149Z,4.5
2017-10-30T07:27:58.528Z,4.5
2017-10-30T07:29:00.893Z,4.5
2017-10-30T07:30:03.630Z,4.6
2017-10-30T07:31:06.001Z,4.6
2017-10-30T07:32:08.936Z,4.6
2017-10-30T07:33:11.306Z,4.6
2017-10-30T07:34:13.673Z,4.7
2017-10-30T07:35:16.053Z,4.7
2017-10-30T07:36:18.419Z,4.7
2017-10-30T07:37:20.791Z,4.7
2017-10-30T07:38:23.158Z,4.7
2017-10-30T07:39:25.525Z,4.7
2017-10-30T07:40:28.258Z,4.8
2017-10-30T07:41:30.636Z,4.7
2017-10-30T07:42:33.000Z,4.7
2017-10-30T07:43:35.377Z,4.7
2017-10-30T07:44:37.755Z,4.7
2017-10-30T07:45:40.121Z,4.7
2017-10-30T07:46:42.501Z,4.7
2017-10-30T07:47:44.873Z,4.7
2017-10-30T07:48:47.238Z,4.7
2017-10-30T07:49:49.629Z,4.7
2017-10-30T07:50:51.996Z,4.7
2017-10-30T07:51:54.369Z,4.7
2017-10-30T07:52:56.732Z,4.7
2017-10-30T07:53:59.095Z,4.6
2017-10-30T07:55:01.461Z,4.7
2017-10-30T07:56:03.843Z,4.6
2017-10-30T07:57:06.213Z,4.7
2017-10-30T07:58:08.604Z,4.7
2017-10-30T07:59:10.962Z,4.7
2017-10-30T08:00:13.339Z,4.7
2017-10-30T08:01:15.701Z,4.8
2017-10-30T08:02:18.075Z,4.8
2017-10-30T08:03:20.450Z,4.8
2017-10-30T08:04:22.815Z,4.8
2017-10-30T08:05:25.181Z,4.8
2017-10-30T08:06:27.553Z,4.9
2017-10-30T08:07:29.925Z,4.9
2017-10-30T08:08:32.678Z,4.9
2017-10-30T08:09:35.060Z,4.9
2017-10-30T08:10:37.434Z,4.9
2017-10-30T08:11:39.812Z,5
2017-10-30T08:12:42.184Z,5.1
2017-10-30T08:13:44.574Z,5
2017-10-30T08:14:46.941Z,5.1
2017-10-30T08:15:49.661Z,5.1
2017-10-30T08:16:52.041Z,5.1
2017-10-30T08:17:54.425Z,5.1
2017-10-30T08:18:56.804Z,5.2
2017-10-30T08:19:59.175Z,5.2
2017-10-30T08:21:01.556Z,5.2
2017-10-30T08:22:03.928Z,5.2
2017-10-30T08:23:06.322Z,5.3
2017-10-30T08:24:08.691Z,5.2
2017-10-30T08:25:11.406Z,5.2
2017-10-30T08:26:13.796Z,5.3
2017-10-30T08:27:16.172Z,5.3
2017-10-30T08:28:18.552Z,5.3
2017-10-30T08:29:20.961Z,5.3
2017-10-30T08:30:23.307Z,5.4
2017-10-30T08:31:25.689Z,5.4
2017-10-30T08:32:28.062Z,5.4
2017-10-30T08:33:30.431Z,5.4
2017-10-30T08:34:33.176Z,5.4
2017-10-30T08:35:35.546Z,5.4
2017-10-30T08:36:37.928Z,5.5
2017-10-30T08:37:40.310Z,5.4
2017-10-30T08:38:42.698Z,5.5
2017-10-30T08:39:45.077Z,5.5
2017-10-30T08:40:47.814Z,5.5
2017-10-30T08:41:50.217Z,5.6
2017-10-30T08:42:52.562Z,5.7
2017-10-30T08:43:55.300Z,5.7
2017-10-30T08:44:57.681Z,5.7
2017-10-30T08:46:00.067Z,5.7
2017-10-30T08:47:02.440Z,5.8
2017-10-30T08:48:05.180Z,5.9
2017-10-30T08:49:07.936Z,5.9
2017-10-30T08:50:10.306Z,5.9
2017-10-30T08:51:12.705Z,5.9
2017-10-30T08:52:15.078Z,5.9
2017-10-30T08:53:17.467Z,5.9
2017-10-30T08:54:19.846Z,5.9
2017-10-30T08:55:22.233Z,5.9
2017-10-30T08:56:24.610Z,6
2017-10-30T08:57:26.996Z,5.9
2017-10-30T08:58:29.388Z,5.9
2017-10-30T08:59:31.792Z,5.9
2017-10-30T09:00:34.180Z,5.9
2017-10-30T09:01:36.552Z,5.9
2017-10-30T09:02:38.929Z,6.1
2017-10-30T09:03:41.698Z,6
2017-10-30T09:04:44.095Z,6
2017-10-30T09:05:46.468Z,6
2017-10-30T09:06:48.855Z,6
2017-10-30T09:07:51.575Z,6
2017-10-30T09:08:53.971Z,6
2017-10-30T09:09:56.362Z,6
2017-10-30T09:10:58.743Z,6
2017-10-30T09:13:05.337Z,6
2017-10-30T09:14:08.078Z,6
2017-10-30T09:15:10.470Z,6.1
2017-10-30T09:16:12.863Z,6.1
2017-10-30T09:17:15.612Z,6.1
2017-10-30T09:18:17.981Z,6.1
2017-10-30T09:19:20.360Z,6.1
2017-10-30T09:20:22.743Z,6.2
2017-10-30T09:21:25.137Z,6.1
2017-10-30T09:22:28.217Z,6.1
2017-10-30T09:23:30.941Z,6.2
2017-10-30T09:24:33.338Z,6.1
2017-10-30T09:25:35.716Z,6.1
2017-10-30T09:26:38.458Z,6.1
2017-10-30T09:27:40.838Z,6.1
2017-10-30T09:28:43.223Z,6.1
2017-10-30T09:29:45.604Z,6
2017-10-30T09:30:47.991Z,6
2017-10-30T09:31:50.372Z,6
2017-10-30T09:32:52.764Z,6
2017-10-30T09:33:55.151Z,6
2017-10-30T09:34:57.546Z,6
2017-10-30T09:35:59.928Z,6
2017-10-30T09:37:02.317Z,6
2017-10-30T09:38:04.698Z,6.1
2017-10-30T09:39:07.093Z,6.1
2017-10-30T09:40:09.471Z,6
2017-10-30T09:41:11.917Z,6
2017-10-30T09:42:14.319Z,6
2017-10-30T09:43:16.709Z,6
2017-10-30T09:44:19.090Z,6
2017-10-30T09:45:21.474Z,6
2017-10-30T09:46:23.855Z,6
2017-10-30T09:47:26.605Z,6
2017-10-30T09:48:28.987Z,6
2017-10-30T09:49:31.373Z,6
2017-10-30T09:50:33.765Z,6
2017-10-30T09:51:36.152Z,5.9
2017-10-30T09:52:38.544Z,6
2017-10-30T09:53:41.321Z,6
2017-10-30T09:54:43.711Z,5.9
2017-10-30T09:55:46.108Z,5.9
2017-10-30T09:56:48.489Z,6
2017-10-30T09:57:50.873Z,5.9
2017-10-30T09:58:53.298Z,5.9
2017-10-30T09:59:55.678Z,5.9
2017-10-30T10:00:58.063Z,5.9
2017-10-30T10:02:00.686Z,5.9
2017-10-30T10:03:03.079Z,5.9
2017-10-30T10:04:05.469Z,5.9
2017-10-30T10:05:07.855Z,5.9
2017-10-30T10:06:10.259Z,5.9
2017-10-30T10:07:12.644Z,5.9
2017-10-30T10:08:15.354Z,5.9
2017-10-30T10:09:17.767Z,5.9
2017-10-30T10:10:20.540Z,5.9
2017-10-30T10:11:22.932Z,5.9
2017-10-30T10:12:25.671Z,5.9
2017-10-30T10:13:28.290Z,5.9
2017-10-30T10:14:30.675Z,5.9
2017-10-30T10:15:33.073Z,5.9
2017-10-30T10:16:35.454Z,5.9
2017-10-30T10:17:38.224Z,5.9
2017-10-30T10:18:40.616Z,5.9
2017-10-30T10:19:43.751Z,5.9
2017-10-30T10:20:46.137Z,5.9
2017-10-30T10:21:48.535Z,6
2017-10-30T10:22:50.933Z,5.9
2017-10-30T10:23:53.326Z,5.9
2017-10-30T10:24:56.090Z,5.9
2017-10-30T10:25:58.476Z,5.9
2017-10-30T10:27:00.953Z,5.9
2017-10-30T10:28:03.474Z,5.9
2017-10-30T10:29:05.860Z,5.8
2017-10-30T10:30:08.254Z,5.8
2017-10-30T10:31:10.638Z,5.9
2017-10-30T10:32:13.274Z,5.8
2017-10-30T10:33:15.657Z,5.9
2017-10-30T10:34:18.042Z,5.9
2017-10-30T10:35:20.438Z,5.9
2017-10-30T10:36:22.822Z,5.9
2017-10-30T10:37:25.349Z,5.9
2017-10-30T10:38:27.734Z,5.9
2017-10-30T10:39:30.110Z,5.9
2017-10-30T10:40:32.850Z,5.9
2017-10-30T10:41:35.248Z,5.9
2017-10-30T10:42:37.638Z,5.8
2017-10-30T10:43:40.025Z,5.9
2017-10-30T10:44:42.435Z,5.9
2017-10-30T10:45:44.883Z,5.9
2017-10-30T10:46:47.288Z,5.9
2017-10-30T10:47:49.677Z,5.9
2017-10-30T10:48:52.131Z,5.9
2017-10-30T10:49:54.561Z,5.9
2017-10-30T10:50:56.944Z,5.9
2017-10-30T10:51:59.337Z,5.9
2017-10-30T10:53:01.809Z,5.9
2017-10-30T10:54:04.186Z,5.9
2017-10-30T10:55:06.567Z,5.9
2017-10-30T10:56:08.969Z,5.9
2017-10-30T10:57:11.352Z,5.9
2017-10-30T10:58:13.739Z,5.9
2017-10-30T10:59:16.136Z,5.9
2017-10-30T11:00:18.526Z,5.9
2017-10-30T11:01:20.908Z,5.9
2017-10-30T11:02:23.303Z,5.9
2017-10-30T11:03:25.853Z,5.9
2017-10-30T11:04:28.540Z,5.9
2017-10-30T11:05:30.923Z,5.9
2017-10-30T11:06:33.311Z,5.9
2017-10-30T11:07:35.693Z,5.9
2017-10-30T11:08:38.078Z,5.9
2017-10-30T11:09:40.480Z,5.9
2017-10-30T11:10:43.208Z,5.9
2017-10-30T11:11:45.606Z,5.9
2017-10-30T11:12:47.997Z,6
2017-10-30T11:13:50.391Z,5.9
2017-10-30T11:14:52.792Z,5.9
2017-10-30T11:15:55.175Z,5.9
2017-10-30T11:16:57.568Z,5.9
2017-10-30T11:17:59.951Z,5.9
2017-10-30T11:19:02.695Z,5.9
2017-10-30T11:20:05.078Z,5.9
2017-10-30T11:21:07.840Z,5.9
2017-10-30T11:22:10.221Z,5.9
2017-10-30T11:23:12.970Z,5.9
2017-10-30T11:24:15.365Z,5.9
2017-10-30T11:25:18.107Z,5.9
2017-10-30T11:26:20.499Z,5.9
2017-10-30T11:27:22.892Z,5.9
2017-10-30T11:28:25.280Z,5.8
2017-10-30T11:29:27.671Z,5.9
2017-10-30T11:30:30.421Z,5.9
2017-10-30T11:31:32.810Z,5.8
2017-10-30T11:32:35.194Z,5.8
2017-10-30T11:33:37.581Z,5.9
2017-10-30T11:34:39.962Z,5.9
2017-10-30T11:35:42.359Z,5.9
2017-10-30T11:36:44.754Z,5.9
2017-10-30T11:37:47.153Z,5.9
2017-10-30T11:38:49.532Z,5.9
2017-10-30T11:39:51.921Z,5.8
2017-10-30T11:40:54.304Z,5.8
2017-10-30T11:41:56.682Z,5.8
2017-10-30T11:42:59.075Z,5.8
2017-10-30T11:44:01.463Z,5.9
2017-10-30T11:45:04.202Z,5.9
2017-10-30T11:46:06.601Z,5.9
2017-10-30T11:47:08.983Z,5.8
2017-10-30T11:48:11.356Z,5.8
2017-10-30T11:49:13.752Z,5.9
2017-10-30T11:50:16.135Z,5.8
2017-10-30T11:51:18.528Z,5.8
2017-10-30T11:52:20.911Z,5.8
2017-10-30T11:53:23.295Z,5.7
2017-10-30T11:54:25.685Z,5.8
2017-10-30T11:55:28.079Z,5.7
2017-10-30T11:56:30.658Z,5.7
2017-10-30T11:57:33.040Z,5.7
2017-10-30T11:58:35.423Z,5.7
2017-10-30T11:59:37.809Z,5.7
2017-10-30T12:00:40.196Z,5.7
2017-10-30T12:01:42.566Z,5.7
2017-10-30T12:02:44.963Z,5.7
2017-10-30T12:03:48.043Z,5.6
2017-10-30T12:04:50.427Z,5.6
2017-10-30T12:05:52.821Z,5.6
2017-10-30T12:06:55.204Z,5.6
2017-10-30T12:07:57.582Z,5.6
2017-10-30T12:08:59.975Z,5.6
2017-10-30T12:10:02.346Z,5.6
2017-10-30T12:11:04.749Z,5.6
2017-10-30T12:12:07.467Z,5.6
2017-10-30T12:13:09.847Z,5.6
2017-10-30T12:14:12.235Z,5.6
2017-10-30T12:15:14.620Z,5.6
2017-10-30T12:16:17.001Z,5.5
2017-10-30T12:17:19.384Z,5.5
2017-10-30T12:18:21.761Z,5.5
2017-10-30T12:19:24.516Z,5.5
2017-10-30T12:20:26.903Z,5.5
2017-10-30T12:21:29.276Z,5.5
2017-10-30T12:22:31.674Z,5.5
2017-10-30T12:23:34.062Z,5.5
2017-10-30T12:24:36.442Z,5.5
2017-10-30T12:25:38.817Z,5.5
2017-10-30T12:26:41.204Z,5.5
2017-10-30T12:27:43.583Z,5.5
2017-10-30T12:28:45.957Z,5.5
2017-10-30T12:29:48.331Z,5.5
2017-10-30T12:30:51.074Z,5.5
2017-10-30T12:31:53.458Z,5.5
2017-10-30T12:32:55.853Z,5.5
2017-10-30T12:33:58.237Z,5.5
2017-10-30T12:35:00.613Z,5.6
2017-10-30T12:36:03.005Z,5.5
2017-10-30T12:37:05.384Z,5.5
2017-10-30T12:38:07.768Z,5.5
2017-10-30T12:39:10.150Z,5.5
2017-10-30T12:40:12.532Z,5.5
2017-10-30T12:41:15.260Z,5.4
2017-10-30T12:42:17.646Z,5.5
2017-10-30T12:43:20.028Z,5.5
2017-10-30T12:44:22.403Z,5.5
2017-10-30T12:45:24.797Z,5.5
2017-10-30T12:46:27.172Z,5.5
2017-10-30T12:47:29.558Z,5.5
2017-10-30T12:48:31.939Z,5.5
2017-10-30T12:49:34.325Z,5.5
2017-10-30T12:50:36.707Z,5.5
2017-10-30T12:51:39.092Z,5.5
2017-10-30T12:52:41.466Z,5.6
2017-10-30T12:53:43.852Z,5.6
2017-10-30T12:54:46.238Z,5.6
2017-10-30T12:55:48.969Z,5.6
2017-10-30T12:56:51.339Z,5.6
2017-10-30T12:57:53.734Z,5.6
2017-10-30T12:58:56.102Z,5.6
2017-10-30T12:59:58.860Z,5.7
2017-10-30T13:01:01.247Z,5.6
2017-10-30T13:02:03.622Z,5.6
2017-10-30T13:03:06.017Z,5.6
2017-10-30T13:04:08.787Z,5.6
2017-10-30T13:05:11.525Z,5.6
2017-10-30T13:06:13.910Z,5.6
2017-10-30T13:07:16.284Z,5.6
2017-10-30T13:08:18.661Z,5.6
2017-10-30T13:09:21.056Z,5.6
2017-10-30T13:10:23.427Z,5.6
2017-10-30T13:11:25.824Z,5.5
2017-10-30T13:12:28.201Z,5.6
2017-10-30T13:13:30.577Z,5.6
2017-10-30T13:14:32.978Z,5.6
2017-10-30T13:15:36.136Z,5.6
2017-10-30T13:16:38.989Z,5.5
2017-10-30T13:17:41.757Z,5.5
2017-10-30T13:18:44.135Z,5.5
2017-10-30T13:19:46.638Z,5.5
2017-10-30T13:20:49.109Z,5.5
2017-10-30T13:21:51.492Z,5.5
2017-10-30T13:22:53.883Z,5.5
2017-10-30T13:23:56.387Z,5.5
2017-10-30T13:24:59.116Z,5.4
2017-10-30T13:26:01.516Z,5.5
2017-10-30T13:27:03.905Z,5.5
2017-10-30T13:28:06.287Z,5.5
2017-10-30T13:29:08.676Z,5.4
2017-10-30T13:30:11.050Z,5.5
2017-10-30T13:31:13.442Z,5.5
2017-10-30T13:32:15.824Z,5.5
2017-10-30T13:33:18.201Z,5.5
2017-10-30T13:34:20.939Z,5.5
2017-10-30T13:35:23.600Z,5.5
2017-10-30T13:36:25.974Z,5.4
2017-10-30T13:37:28.360Z,5.5
2017-10-30T13:38:30.965Z,5.4
2017-10-30T13:39:33.339Z,5.4
2017-10-30T13:40:35.723Z,5.4
2017-10-30T13:41:38.092Z,5.4
2017-10-30T13:42:40.489Z,5.4
2017-10-30T13:43:42.884Z,5.4
2017-10-30T13:44:45.257Z,5.4
2017-10-30T13:46:32.896Z,5.3
2017-10-30T13:47:35.318Z,5.4
2017-10-30T13:48:37.754Z,5.4
2017-10-30T13:49:40.179Z,5.3
2017-10-30T13:50:42.602Z,5.3
2017-10-30T13:51:45.062Z,5.3
2017-10-30T13:52:47.487Z,5.3
2017-10-30T13:53:50.327Z,5.3
2017-10-30T13:54:55.594Z,5.2
2017-10-30T13:55:58.241Z,5.3
2017-10-30T13:57:01.027Z,5.3
2017-10-30T13:58:03.533Z,5.2
2017-10-30T13:59:05.950Z,5.3
2017-10-30T14:00:09.246Z,5.2
2017-10-30T14:01:12.172Z,5.1
2017-10-30T14:02:15.193Z,5.1
2017-10-30T14:03:18.814Z,5.2
2017-10-30T14:04:21.247Z,5.2
2017-10-30T14:05:23.686Z,5.2
2017-10-30T14:06:26.230Z,5.2
2017-10-30T14:07:28.687Z,5.2
2017-10-30T14:08:31.116Z,5.2
2017-10-30T14:09:33.686Z,5.2
2017-10-30T14:10:36.108Z,5.2
2017-10-30T14:11:38.529Z,5.2
2017-10-30T14:12:41.666Z,5.2
2017-10-30T14:13:44.438Z,5.2
2017-10-30T14:14:46.876Z,5.2
2017-10-30T14:15:49.316Z,5.3
2017-10-30T14:16:51.716Z,5.3
2017-10-30T14:17:54.151Z,5.4
2017-10-30T14:18:56.581Z,5.3
2017-10-30T14:19:59.014Z,5.3
2017-10-30T14:21:01.448Z,5.3
2017-10-30T14:22:03.866Z,5.3
2017-10-30T14:23:06.301Z,5.3
2017-10-30T14:24:08.736Z,5.2